| Date | Time | Temp. (oF) | Dew Point (oF) | Rel. Hum. (%) | Press. (in.) | Wind Dir. | Wind Speed (mph) | Hourly Rainfall (in.) |
|
|---|---|---|---|---|---|---|---|---|---|
| 1 | 05/13 | 00:00 | 53 | 31 | 44 | 30.34 | N | 5 | 0.00 |
| 2 | 05/12 | 23:00 | 55 | 30 | 39 | 30.32 | NNW | 4 | 0.00 |
| 3 | 05/12 | 22:00 | 57 | 29 | 35 | 30.31 | NNW | 7 | 0.00 |
| 4 | 05/12 | 21:00 | 60 | 29 | 32 | 30.28 | NNW | 3 | 0.00 |
| 5 | 05/12 | 20:00 | 64 | 31 | 30 | 30.24 | NNW | 3 | 0.00 |
| 6 | 05/12 | 19:00 | 67 | 35 | 31 | 30.22 | NNW | 5 | 0.00 |
| 7 | 05/12 | 18:00 | 69 | 36 | 31 | 30.20 | N | 6 | 0.00 |
| 8 | 05/12 | 17:00 | 70 | 38 | 32 | 30.19 | NW | 4 | 0.00 |
| 9 | 05/12 | 16:00 | 70 | 40 | 35 | 30.19 | NE | 7 | 0.00 |
| 10 | 05/12 | 15:00 | 70 | 43 | 38 | 30.21 | N | 11 | 0.00 |
| 11 | 05/12 | 14:00 | 69 | 46 | 44 | 30.20 | NW | 6 | 0.00 |
| 12 | 05/12 | 13:00 | 65 | 46 | 52 | 30.20 | NW | 5 | 0.00 |
| 13 | 05/12 | 12:00 | 61 | 48 | 63 | 30.21 | NNW | 6 | 0.00 |
| 14 | 05/12 | 11:00 | 60 | 48 | 67 | 30.19 | NNW | 7 | 0.00 |
| 15 | 05/12 | 10:00 | 60 | 50 | 70 | 30.17 | N | 10 | 0.00 |
| 16 | 05/12 | 09:00 | 61 | 52 | 75 | 30.14 | N | 10 | 0.00 |
| 17 | 05/12 | 08:00 | 64 | 57 | 79 | 30.10 | NNW | 7 | 0.00 |
| 18 | 05/12 | 07:00 | 65 | 58 | 79 | 30.08 | N | 5 | 0.00 |
| 19 | 05/12 | 06:00 | 67 | 58 | 75 | 30.04 | NNW | 5 | 0.00 |
| 20 | 05/12 | 05:00 | 69 | 57 | 68 | 30.03 | NW | 4 | 0.00 |
| 21 | 05/12 | 04:00 | 64 | 61 | 90 | 30.02 | NNW | 7 | 0.00 |
| 22 | 05/12 | 03:00 | 63 | 62 | 97 | 29.99 | SW | 1 | 0.00 |
| 23 | 05/12 | 02:00 | 63 | 60 | 92 | 29.97 | WSW | 0 | 0.00 |
| 24 | 05/12 | 01:00 | 65 | 62 | 91 | 29.97 | SW | 0 | 0.00 |